Greenville, Virginia
Current Conditions -  °F | °C
As of 6:35 PM on Saturday 25 Oct 2014 (Local Time) from KW13 Reporting Station
Clear Clear  
Wind Chill: 63°   Ceiling: Unl
Heat Index: 63°   Visibility: 10mi
Dew Point: 41°   Wind: 5mph
Humidity: 44%   Direction: 200°SSW
Pressure: 29.82"   Gusts: NA
Location:  38°N, 79.16°W
Report Text: KW13 252235Z AUTO 20004KT 10SM CLR 17/05 A2982 RMK AO1 T01720048
Loading
Personal Weather Stations






























Interactive Weather Map New forecast layout! Learn more

10-Day Weather Forecast

Advertisements
Track Severe Weather on mobile